createdAt,value
2022-10-31T00:00:48.015Z,102143.06
2022-10-31T00:03:15.045Z,102141.22
2022-10-31T00:05:43.511Z,102139.63
2022-10-31T00:08:10.028Z,102145.88
2022-10-31T00:10:41.456Z,102145.88
2022-10-31T00:13:09.123Z,102148.56
2022-10-31T00:15:36.711Z,102148.56
2022-10-31T00:18:04.571Z,102148.69
2022-10-31T00:20:31.520Z,102148.56
2022-10-31T00:23:01.706Z,102156.78
2022-10-31T00:25:29.814Z,102148.84
2022-10-31T00:27:56.772Z,102157.78
2022-10-31T00:30:23.707Z,102154.22
2022-10-31T00:32:50.309Z,102157.03
2022-10-31T00:35:16.784Z,102148.97
2022-10-31T00:37:43.330Z,102148.97
2022-10-31T00:40:10.612Z,102150.97
2022-10-31T00:42:37.106Z,102149.97
2022-10-31T00:45:03.798Z,102158.03
2022-10-31T00:47:30.276Z,102167.09
2022-10-31T00:49:56.743Z,102165.41
2022-10-31T00:52:23.290Z,102165.41
2022-10-31T00:54:49.756Z,102166.38
2022-10-31T00:57:16.270Z,102163.69
2022-10-31T00:59:42.732Z,102170.06
2022-10-31T01:02:09.300Z,102161.13
2022-10-31T01:04:35.882Z,102163.97
2022-10-31T01:07:02.361Z,102160.28
2022-10-31T01:09:28.837Z,102168.38
2022-10-31T01:11:55.327Z,102166.66
2022-10-31T01:14:21.796Z,102152.31
2022-10-31T01:16:48.238Z,102149.78
2022-10-31T01:19:14.740Z,102147.09
2022-10-31T01:21:41.191Z,102152.63
2022-10-31T01:24:07.941Z,102140.88
2022-10-31T01:26:34.582Z,102127.56
2022-10-31T01:29:06.108Z,102132.94
2022-10-31T01:31:38.675Z,102135.75
2022-10-31T01:34:05.706Z,102141.13
2022-10-31T01:36:38.087Z,102131.34
2022-10-31T01:39:16.019Z,102126.09
2022-10-31T01:41:44.776Z,102128.78
2022-10-31T01:44:17.007Z,102136.84
2022-10-31T01:46:51.662Z,102120.84
2022-10-31T01:49:23.217Z,102119.00
2022-10-31T01:52:02.390Z,102120.00
2022-10-31T01:54:33.631Z,102122.69
2022-10-31T01:57:00.940Z,102120.16
2022-10-31T01:59:31.958Z,102121.97
2022-10-31T02:01:58.602Z,102118.44
2022-10-31T02:04:26.184Z,102123.94
2022-10-31T02:07:08.475Z,102121.25
2022-10-31T02:09:36.682Z,102118.72
2022-10-31T02:12:03.787Z,102114.19
2022-10-31T02:14:32.126Z,102120.41
2022-10-31T02:16:59.153Z,102123.22
2022-10-31T02:19:34.170Z,102116.16
2022-10-31T02:22:13.806Z,102116.16
2022-10-31T02:25:07.707Z,102130.72
2022-10-31T02:28:15.921Z,102128.03
2022-10-31T02:30:53.353Z,102118.13
2022-10-31T02:33:35.523Z,102124.47
2022-10-31T02:36:29.424Z,102127.31
2022-10-31T02:39:16.560Z,102124.63
2022-10-31T02:41:49.024Z,102121.09
2022-10-31T02:44:43.050Z,102123.03
2022-10-31T02:47:18.624Z,102121.22
2022-10-31T02:50:03.204Z,102123.91
2022-10-31T02:52:32.463Z,102120.34
2022-10-31T02:54:59.070Z,102122.19
2022-10-31T02:57:35.490Z,102125.03
2022-10-31T03:00:08.658Z,102129.56
2022-10-31T03:02:38.259Z,102132.25
2022-10-31T03:05:11.954Z,102126.03
2022-10-31T03:08:18.154Z,102123.59
2022-10-31T03:10:58.221Z,102128.81
2022-10-31T03:13:33.394Z,102121.75
2022-10-31T03:16:17.224Z,102122.59
2022-10-31T03:18:52.767Z,102124.59
2022-10-31T03:21:28.207Z,102120.06
2022-10-31T03:23:57.724Z,102124.59
2022-10-31T03:26:25.870Z,102123.72
2022-10-31T03:29:00.686Z,102128.22
2022-10-31T03:31:31.843Z,102129.22
2022-10-31T03:34:00.899Z,102130.22
2022-10-31T03:36:29.365Z,102131.91
2022-10-31T03:38:57.759Z,102130.22
2022-10-31T03:41:29.226Z,102125.84
2022-10-31T03:44:01.550Z,102137.44
2022-10-31T03:46:28.419Z,102128.53
2022-10-31T03:48:55.344Z,102128.53
2022-10-31T03:51:31.262Z,102132.28
2022-10-31T03:54:09.810Z,102137.56
2022-10-31T03:56:41.135Z,102135.81
2022-10-31T03:59:17.638Z,102127.06
2022-10-31T04:01:50.387Z,102131.44
2022-10-31T04:04:17.820Z,102132.44
2022-10-31T04:06:46.791Z,102132.44
2022-10-31T04:09:15.019Z,102135.97
2022-10-31T04:11:46.815Z,102125.31
2022-10-31T04:14:13.338Z,102130.69
2022-10-31T04:16:44.008Z,102121.94
2022-10-31T04:19:11.957Z,102123.88
2022-10-31T04:21:38.429Z,102129.16
2022-10-31T04:24:05.227Z,102122.94
2022-10-31T04:26:31.686Z,102114.97
2022-10-31T04:28:58.151Z,102121.19
2022-10-31T04:31:24.629Z,102122.19
2022-10-31T04:33:51.082Z,102121.34
2022-10-31T04:36:17.579Z,102121.34
2022-10-31T04:38:44.070Z,102124.03
2022-10-31T04:41:10.510Z,102128.56
2022-10-31T04:43:37.018Z,102131.25
2022-10-31T04:46:03.578Z,102128.56
2022-10-31T04:48:30.029Z,102120.59
2022-10-31T04:51:00.557Z,102121.47
2022-10-31T04:53:27.284Z,102123.28
2022-10-31T04:55:53.751Z,102120.75
2022-10-31T04:58:20.210Z,102126.13
2022-10-31T05:00:46.753Z,102127.97
2022-10-31T05:03:13.225Z,102123.59
2022-10-31T05:05:39.642Z,102123.59
2022-10-31T05:08:06.307Z,102129.91
2022-10-31T05:10:32.882Z,102122.72
2022-10-31T05:13:02.125Z,102114.66
2022-10-31T05:15:29.559Z,102121.84
2022-10-31T05:17:56.456Z,102118.47
2022-10-31T05:20:26.266Z,102128.38
2022-10-31T05:22:54.547Z,102119.44
2022-10-31T05:25:22.944Z,102112.22
2022-10-31T05:27:51.574Z,102112.34
2022-10-31T05:30:24.160Z,102106.97
2022-10-31T05:32:51.739Z,102101.72
2022-10-31T05:35:27.293Z,102104.44
2022-10-31T05:37:54.040Z,102098.19
2022-10-31T05:40:21.644Z,102102.72
2022-10-31T05:42:48.833Z,102092.81
2022-10-31T05:45:17.453Z,102096.50
2022-10-31T05:47:59.790Z,102094.66
2022-10-31T05:50:28.804Z,102092.97
2022-10-31T05:53:03.066Z,102095.75
2022-10-31T05:55:29.899Z,102088.53
2022-10-31T05:57:57.157Z,102085.00
2022-10-31T06:00:25.177Z,102094.06
2022-10-31T06:03:05.677Z,102087.84
2022-10-31T06:05:33.143Z,102083.31
2022-10-31T06:08:00.055Z,102087.84
2022-10-31T06:10:27.701Z,102083.47
2022-10-31T06:12:54.183Z,102090.66
2022-10-31T06:15:24.088Z,102081.88
2022-10-31T06:18:05.147Z,102081.88
2022-10-31T06:20:33.074Z,102081.88
2022-10-31T06:23:00.152Z,102081.03
2022-10-31T06:25:27.412Z,102090.09
2022-10-31T06:27:53.930Z,102095.31
2022-10-31T06:30:20.467Z,102097.16
2022-10-31T06:32:47.067Z,102098.16
2022-10-31T06:35:13.599Z,102094.56
2022-10-31T06:37:40.145Z,102090.94
2022-10-31T06:40:06.968Z,102098.16
2022-10-31T06:42:33.442Z,102093.72
2022-10-31T06:44:59.932Z,102101.78
2022-10-31T06:47:26.409Z,102101.78
2022-10-31T06:49:52.936Z,102097.41
2022-10-31T06:52:19.393Z,102101.78
2022-10-31T06:54:45.887Z,102105.47
2022-10-31T06:57:12.381Z,102108.16
2022-10-31T06:59:39.011Z,102096.56
2022-10-31T07:02:05.986Z,102094.88
2022-10-31T07:04:32.524Z,102101.94
2022-10-31T07:06:59.015Z,102097.41
2022-10-31T07:09:25.531Z,102095.72
2022-10-31T07:11:53.927Z,102107.31
2022-10-31T07:14:20.661Z,102113.53
2022-10-31T07:16:51.601Z,102106.47
2022-10-31T07:19:18.397Z,102109.16
2022-10-31T07:21:44.846Z,102112.69
2022-10-31T07:24:11.334Z,102111.00
2022-10-31T07:26:37.806Z,102109.25
2022-10-31T07:29:04.317Z,102109.16
2022-10-31T07:31:30.768Z,102110.00
2022-10-31T07:33:57.324Z,102111.84
2022-10-31T07:36:23.777Z,102117.22
2022-10-31T07:38:50.768Z,102113.53
2022-10-31T07:41:17.270Z,102114.38
2022-10-31T07:43:43.777Z,102109.00
2022-10-31T07:46:10.319Z,102123.31
2022-10-31T07:48:36.823Z,102126.00
2022-10-31T07:51:03.330Z,102120.63
2022-10-31T07:53:29.790Z,102122.34
2022-10-31T07:55:56.319Z,102114.97
2022-10-31T07:58:22.824Z,102124.03
2022-10-31T08:00:49.587Z,102137.34
2022-10-31T08:03:18.540Z,102138.19
2022-10-31T08:05:48.327Z,102135.50
2022-10-31T08:08:15.536Z,102131.84
2022-10-31T08:10:42.347Z,102134.41
2022-10-31T08:13:13.043Z,102136.09
2022-10-31T08:15:42.412Z,102134.25
2022-10-31T08:18:15.804Z,102135.09
2022-10-31T08:20:43.720Z,102138.66
2022-10-31T08:23:12.207Z,102126.06
2022-10-31T08:25:39.342Z,102125.09
2022-10-31T08:28:07.287Z,102125.09
2022-10-31T08:30:35.942Z,102117.88
2022-10-31T08:33:17.556Z,102112.50
2022-10-31T08:35:44.651Z,102119.56
2022-10-31T08:38:13.257Z,102115.91
2022-10-31T08:40:40.568Z,102121.16
2022-10-31T08:43:12.491Z,102113.06
2022-10-31T08:45:38.987Z,102115.63
2022-10-31T08:48:09.975Z,102116.47
2022-10-31T08:50:37.103Z,102111.09
2022-10-31T08:53:10.318Z,102096.69
2022-10-31T08:55:37.957Z,102096.53
2022-10-31T08:58:06.898Z,102096.41
2022-10-31T09:00:35.055Z,102097.28
2022-10-31T09:03:04.544Z,102097.13
2022-10-31T09:05:31.721Z,102089.91
2022-10-31T09:08:03.273Z,102096.16
2022-10-31T09:10:31.407Z,102091.50
2022-10-31T09:13:02.806Z,102080.59
2022-10-31T09:15:29.594Z,102076.91
2022-10-31T09:17:56.100Z,102073.25
2022-10-31T09:20:22.715Z,102075.69
2022-10-31T09:22:55.972Z,102069.34
2022-10-31T09:25:22.481Z,102069.06
2022-10-31T09:27:48.942Z,102072.47
2022-10-31T09:30:15.443Z,102068.78
2022-10-31T09:32:41.968Z,102058.88
2022-10-31T09:35:08.919Z,102050.69
2022-10-31T09:37:35.839Z,102059.47
2022-10-31T09:40:02.345Z,102062.88
2022-10-31T09:42:34.516Z,102060.06
2022-10-31T09:45:26.211Z,102055.53
2022-10-31T09:48:30.067Z,102047.34
2022-10-31T09:51:01.988Z,102042.81
2022-10-31T09:53:38.033Z,102034.72
2022-10-31T09:56:10.757Z,102038.28
2022-10-31T09:58:43.258Z,102031.03
2022-10-31T10:01:51.647Z,102031.03
2022-10-31T10:04:45.059Z,102026.66
2022-10-31T10:07:44.264Z,102027.50
2022-10-31T10:10:41.851Z,102031.03
2022-10-31T10:13:52.745Z,102028.34
2022-10-31T10:17:10.246Z,102023.81
2022-10-31T10:20:01.516Z,102029.94
2022-10-31T10:22:49.631Z,102031.75
2022-10-31T10:25:32.643Z,102030.91
2022-10-31T10:28:24.414Z,102020.97
2022-10-31T10:31:08.843Z,102010.09
2022-10-31T10:33:41.310Z,102011.66
2022-10-31T10:36:15.359Z,102013.38
2022-10-31T10:38:56.247Z,102007.00
2022-10-31T10:41:24.848Z,101994.25
2022-10-31T10:43:52.554Z,101999.50
2022-10-31T10:46:49.951Z,101994.97
2022-10-31T10:49:27.362Z,101974.16
2022-10-31T10:55:28.808Z,101965.78
2022-10-31T10:58:04.533Z,101958.56
2022-10-31T11:00:35.850Z,101961.13
2022-10-31T11:03:02.955Z,101944.84
2022-10-31T11:05:39.016Z,101950.22
2022-10-31T11:08:06.660Z,101931.38
2022-10-31T11:10:34.319Z,101935.78
2022-10-31T11:13:03.814Z,101925.88
2022-10-31T11:15:37.860Z,101921.47
2022-10-31T11:18:05.138Z,101929.41
2022-10-31T11:20:37.730Z,101928.28
2022-10-31T11:23:25.465Z,101928.41
2022-10-31T11:26:02.343Z,101924.72
2022-10-31T11:28:30.972Z,101926.44
2022-10-31T11:31:00.027Z,101919.34
2022-10-31T11:33:32.993Z,101914.81
2022-10-31T11:36:00.977Z,101913.84
2022-10-31T11:38:43.520Z,101912.84
2022-10-31T11:41:09.983Z,101902.09
2022-10-31T11:43:37.262Z,101897.53
2022-10-31T11:46:13.205Z,101877.72
2022-10-31T11:48:39.733Z,101878.56
2022-10-31T11:51:06.259Z,101873.16
2022-10-31T11:53:35.126Z,101862.41
2022-10-31T11:56:15.891Z,101866.81
2022-10-31T11:58:43.363Z,101858.88
2022-10-31T12:01:27.974Z,101860.72
2022-10-31T12:04:03.325Z,101861.56
2022-10-31T12:06:39.644Z,101846.25
2022-10-31T12:09:22.132Z,101841.72
2022-10-31T12:12:06.857Z,101846.25
2022-10-31T12:14:57.164Z,101846.25
2022-10-31T12:17:32.077Z,101829.13
2022-10-31T12:20:09.516Z,101834.53
2022-10-31T12:23:13.590Z,101816.81
2022-10-31T12:26:18.731Z,101811.25
2022-10-31T12:29:22.148Z,101799.81
2022-10-31T12:32:13.306Z,101798.97
2022-10-31T12:34:51.707Z,101805.19
2022-10-31T12:37:48.029Z,101791.00
2022-10-31T12:40:29.689Z,101791.72
2022-10-31T12:42:56.117Z,101779.13
2022-10-31T12:45:45.453Z,101778.28
2022-10-31T12:48:28.877Z,101765.66
2022-10-31T12:51:06.287Z,101751.22
2022-10-31T12:54:16.804Z,101743.13
2022-10-31T12:57:09.273Z,101734.94
2022-10-31T12:59:47.028Z,101733.09
2022-10-31T13:02:41.114Z,101718.78
2022-10-31T13:05:31.307Z,101708.72
2022-10-31T13:08:25.354Z,101700.63
2022-10-31T13:11:26.159Z,101711.41
2022-10-31T13:14:20.379Z,101705.00
2022-10-31T13:16:48.396Z,101694.25
2022-10-31T13:19:20.143Z,101680.50
2022-10-31T13:22:09.647Z,101674.44
2022-10-31T13:25:02.835Z,101666.34
2022-10-31T13:27:43.861Z,101673.44
2022-10-31T13:30:19.459Z,101666.50
2022-10-31T13:32:48.696Z,101660.09
2022-10-31T13:35:24.810Z,101654.88
2022-10-31T13:38:02.864Z,101652.19
2022-10-31T13:41:09.452Z,101646.81
2022-10-31T13:43:59.871Z,101628.97
2022-10-31T13:46:35.331Z,101630.81
2022-10-31T13:49:01.845Z,101625.44
2022-10-31T13:51:36.002Z,101622.88
2022-10-31T13:54:27.638Z,101630.09
2022-10-31T13:56:54.570Z,101613.94
2022-10-31T13:59:26.614Z,101615.81
2022-10-31T14:01:57.309Z,101620.34
2022-10-31T14:04:26.193Z,101611.41
2022-10-31T14:07:12.668Z,101611.41
2022-10-31T14:10:00.134Z,101605.19
2022-10-31T14:12:44.033Z,101601.66
2022-10-31T14:15:10.322Z,101598.09
2022-10-31T14:18:04.998Z,101591.75
2022-10-31T14:20:41.068Z,101582.81
2022-10-31T14:23:29.378Z,101576.72
2022-10-31T14:26:29.427Z,101568.66
2022-10-31T14:28:58.934Z,101563.28
2022-10-31T14:31:33.295Z,101557.03
2022-10-31T14:34:01.314Z,101558.03
2022-10-31T14:37:01.951Z,101547.41
2022-10-31T14:39:40.369Z,101558.19
2022-10-31T14:42:29.088Z,101549.25
2022-10-31T14:45:13.712Z,101543.75
2022-10-31T14:47:46.081Z,101531.25
2022-10-31T14:50:18.649Z,101531.25
2022-10-31T14:52:50.348Z,101530.44
2022-10-31T14:55:17.963Z,101512.59
2022-10-31T14:58:06.925Z,101512.59
2022-10-31T15:00:34.810Z,101516.97
2022-10-31T15:03:13.390Z,101509.91
2022-10-31T15:05:52.588Z,101503.69
2022-10-31T15:08:27.923Z,101500.16
2022-10-31T15:10:54.424Z,101497.28
2022-10-31T15:13:22.928Z,101490.22
2022-10-31T15:15:52.723Z,101477.78
2022-10-31T15:18:24.304Z,101474.38
2022-10-31T15:20:51.818Z,101471.53
2022-10-31T15:23:29.860Z,101470.69
2022-10-31T15:26:04.995Z,101459.91
2022-10-31T15:28:32.359Z,101455.53
2022-10-31T15:31:01.324Z,101455.53
2022-10-31T15:33:48.159Z,101443.09
2022-10-31T15:36:29.155Z,101447.63
2022-10-31T15:38:58.687Z,101442.09
2022-10-31T15:41:28.861Z,101434.00
2022-10-31T15:43:58.487Z,101429.63
2022-10-31T15:46:25.054Z,101423.41
2022-10-31T15:48:51.525Z,101414.63
2022-10-31T15:51:25.794Z,101413.78
2022-10-31T15:53:55.337Z,101402.31
2022-10-31T15:56:39.877Z,101411.28
2022-10-31T15:59:06.358Z,101405.72
2022-10-31T16:01:34.344Z,101414.50
2022-10-31T16:04:23.253Z,101412.13
2022-10-31T16:07:21.972Z,101402.19
2022-10-31T16:10:04.553Z,101404.88
2022-10-31T16:12:42.938Z,101399.63
2022-10-31T16:15:16.329Z,101405.00
2022-10-31T16:17:48.779Z,101397.94
2022-10-31T16:20:38.639Z,101393.56
2022-10-31T16:23:05.207Z,101389.88
2022-10-31T16:25:39.557Z,101390.88
2022-10-31T16:28:16.964Z,101381.13
2022-10-31T16:30:49.932Z,101377.59
2022-10-31T16:33:37.366Z,101378.56
2022-10-31T16:36:35.271Z,101382.09
2022-10-31T16:39:02.495Z,101377.59
2022-10-31T16:41:29.389Z,101376.72
2022-10-31T16:43:55.967Z,101371.34
2022-10-31T16:46:27.063Z,101358.06
2022-10-31T16:48:54.617Z,101353.53
2022-10-31T16:51:21.670Z,101343.59
2022-10-31T16:53:48.156Z,101342.75
2022-10-31T16:56:30.973Z,101342.94
2022-10-31T16:58:57.763Z,101337.38
2022-10-31T17:01:24.711Z,101332.16
2022-10-31T17:03:51.358Z,101338.38
2022-10-31T17:06:17.858Z,101332.16
2022-10-31T17:08:44.387Z,101325.94
2022-10-31T17:11:21.773Z,101318.84
2022-10-31T17:13:48.355Z,101313.47
2022-10-31T17:16:15.438Z,101313.47
2022-10-31T17:18:43.679Z,101315.31
2022-10-31T17:21:19.606Z,101319.00
2022-10-31T17:23:46.114Z,101324.41
2022-10-31T17:26:12.770Z,101319.84
2022-10-31T17:28:39.314Z,101318.16
2022-10-31T17:31:06.511Z,101305.72
2022-10-31T17:33:33.114Z,101304.03
2022-10-31T17:35:59.633Z,101298.63
2022-10-31T17:38:26.167Z,101307.72
2022-10-31T17:40:52.721Z,101299.66
2022-10-31T17:43:19.408Z,101288.03
2022-10-31T17:45:45.901Z,101273.75
2022-10-31T17:48:12.959Z,101268.38
2022-10-31T17:50:40.101Z,101266.69
2022-10-31T17:53:06.601Z,101255.94
2022-10-31T17:55:36.257Z,101255.94
2022-10-31T17:58:04.558Z,101241.66
2022-10-31T18:00:31.086Z,101237.09
2022-10-31T18:02:57.791Z,101230.00
2022-10-31T18:05:26.766Z,101231.03
2022-10-31T18:07:53.466Z,101249.84
2022-10-31T18:10:20.216Z,101240.94
2022-10-31T18:12:48.646Z,101244.47
2022-10-31T18:15:16.354Z,101249.00
2022-10-31T18:17:42.933Z,101245.47
2022-10-31T18:20:10.269Z,101237.41
2022-10-31T18:22:37.100Z,101235.72
2022-10-31T18:25:05.390Z,101231.31
2022-10-31T18:27:31.927Z,101234.72
2022-10-31T18:29:58.442Z,101224.13
2022-10-31T18:32:24.959Z,101217.88
2022-10-31T18:34:51.445Z,101223.25
2022-10-31T18:37:17.935Z,101218.03
2022-10-31T18:39:44.521Z,101216.19
2022-10-31T18:42:11.003Z,101206.28
2022-10-31T18:44:38.222Z,101201.91
2022-10-31T18:47:04.790Z,101197.38
2022-10-31T18:49:32.750Z,101198.38
2022-10-31T18:51:59.962Z,101202.91
2022-10-31T18:54:26.496Z,101199.41
2022-10-31T18:56:53.036Z,101194.00
2022-10-31T18:59:19.572Z,101200.38
2022-10-31T19:01:46.694Z,101196.69
2022-10-31T19:04:13.766Z,101200.22
2022-10-31T19:06:40.396Z,101206.63
2022-10-31T19:09:10.944Z,101190.63
2022-10-31T19:11:38.702Z,101186.91
2022-10-31T19:14:08.286Z,101191.47
2022-10-31T19:16:35.352Z,101179.88
2022-10-31T19:19:02.021Z,101189.78
2022-10-31T19:21:28.877Z,101179.03
2022-10-31T19:23:56.415Z,101179.19
2022-10-31T19:26:24.869Z,101172.81
2022-10-31T19:28:51.474Z,101166.59
2022-10-31T19:31:18.922Z,101162.06
2022-10-31T19:33:46.394Z,101152.31
2022-10-31T19:36:16.472Z,101146.09
2022-10-31T19:38:44.955Z,101154.16
2022-10-31T19:41:31.588Z,101153.28
2022-10-31T19:43:59.915Z,101146.09
2022-10-31T19:46:48.243Z,101148.88
2022-10-31T19:49:13.449Z,101145.22
2022-10-31T19:51:40.104Z,101148.03
2022-10-31T19:54:07.004Z,101158.78
2022-10-31T19:56:33.522Z,101150.91
2022-10-31T19:59:00.048Z,101143.66
2022-10-31T20:01:26.636Z,101142.81
2022-10-31T20:03:53.150Z,101145.50
2022-10-31T20:06:32.467Z,101139.44
2022-10-31T20:09:00.810Z,101141.13
2022-10-31T20:11:28.693Z,101132.22
2022-10-31T20:13:57.525Z,101136.75
2022-10-31T20:16:24.898Z,101126.00
2022-10-31T20:18:51.461Z,101127.84
2022-10-31T20:21:21.043Z,101126.16
2022-10-31T20:23:47.707Z,101113.56
2022-10-31T20:26:18.155Z,101122.63
2022-10-31T20:28:45.457Z,101110.88
2022-10-31T20:31:18.809Z,101114.56
2022-10-31T20:33:45.341Z,101110.03
2022-10-31T20:36:12.417Z,101110.03
2022-10-31T20:38:44.031Z,101104.66
2022-10-31T20:41:11.358Z,101093.91
2022-10-31T20:43:38.587Z,101080.44
2022-10-31T20:46:10.591Z,101085.00
2022-10-31T20:48:37.042Z,101073.38
2022-10-31T20:51:06.870Z,101083.28
2022-10-31T20:53:34.062Z,101081.59
2022-10-31T20:56:07.477Z,101077.06
2022-10-31T20:58:35.802Z,101072.69
2022-10-31T21:01:02.425Z,101075.38
2022-10-31T21:03:28.988Z,101068.16
2022-10-31T21:06:01.073Z,101068.16
2022-10-31T21:08:30.014Z,101070.00
2022-10-31T21:10:57.160Z,101061.94
2022-10-31T21:13:24.173Z,101063.63
2022-10-31T21:18:56.464Z,101039.59
2022-10-31T21:21:30.705Z,101047.66
2022-10-31T21:24:01.806Z,101037.91
2022-10-31T21:26:33.484Z,101035.22
2022-10-31T21:29:00.807Z,101027.16
2022-10-31T21:31:28.309Z,101017.25
2022-10-31T21:33:55.087Z,101024.47
2022-10-31T21:36:21.725Z,101026.16
2022-10-31T21:38:51.876Z,101021.78
2022-10-31T21:41:19.603Z,101015.53
2022-10-31T21:43:47.469Z,101012.00
2022-10-31T21:46:21.088Z,101013.03
2022-10-31T21:48:48.031Z,101009.50
2022-10-31T21:51:21.988Z,101006.50
2022-10-31T21:54:07.839Z,101006.63
2022-10-31T21:56:34.589Z,101014.69
2022-10-31T21:59:01.439Z,101001.44
2022-10-31T22:01:29.506Z,101007.66
2022-10-31T22:03:56.751Z,101008.66
2022-10-31T22:06:26.529Z,101011.34
2022-10-31T22:08:54.406Z,101004.13
2022-10-31T22:11:21.085Z,101004.13
2022-10-31T22:13:48.833Z,101002.44
2022-10-31T22:16:20.826Z,100998.91
2022-10-31T22:18:51.075Z,101000.59
2022-10-31T22:21:20.292Z,100993.53
2022-10-31T22:23:54.253Z,100993.53
2022-10-31T22:26:21.854Z,100998.91
2022-10-31T22:28:50.489Z,100993.53
2022-10-31T22:31:20.081Z,100981.25
2022-10-31T22:33:47.542Z,100981.06
2022-10-31T22:36:16.928Z,100986.44
2022-10-31T22:38:44.549Z,100982.78
2022-10-31T22:41:14.234Z,100979.41
2022-10-31T22:43:41.355Z,100971.16
2022-10-31T22:46:12.254Z,100973.00
2022-10-31T22:48:41.681Z,100958.72
2022-10-31T22:51:11.219Z,100951.50
2022-10-31T22:53:39.164Z,100954.19
2022-10-31T22:56:07.683Z,100953.34
2022-10-31T22:58:35.075Z,100943.44
2022-10-31T23:01:07.479Z,100938.06
2022-10-31T23:03:34.457Z,100938.06
2022-10-31T23:06:02.434Z,100928.31
2022-10-31T23:08:30.439Z,100921.09
2022-10-31T23:10:56.883Z,100915.91
2022-10-31T23:13:42.119Z,100912.19
2022-10-31T23:16:09.945Z,100913.22
2022-10-31T23:18:49.749Z,100914.03
2022-10-31T23:21:37.397Z,100917.56
2022-10-31T23:24:04.239Z,100903.28
2022-10-31T23:26:49.095Z,100913.22
2022-10-31T23:29:15.561Z,100899.75
2022-10-31T23:31:42.121Z,100907.81
2022-10-31T23:34:09.342Z,100907.81
2022-10-31T23:36:35.815Z,100899.75
2022-10-31T23:39:02.421Z,100890.03
2022-10-31T23:41:28.897Z,100884.66
2022-10-31T23:43:55.421Z,100873.91
2022-10-31T23:46:21.890Z,100870.34
2022-10-31T23:48:49.374Z,100869.50
2022-10-31T23:51:16.164Z,100873.03
2022-10-31T23:53:46.381Z,100870.34
2022-10-31T23:56:14.059Z,100869.34
2022-10-31T23:58:41.214Z,100867.66
